• Join FlightAware (Why Join?)
  • Login
  • US Flag 
04:18AM EDT


 

Airport Tracker/Info


-or-


 

Live Flight TrackerFlight Track Log ✈ TSC417 ✈ 22-Apr-2013 ✈ MUVR / VRA - CYUL

Flight Track Log - Related Links

Times and Time Zones

All times are in EDT time to prevent confusion due to time zone crossing. See the TSC417 flight status page for this flight to view local times or setup timezone preferences in your user account.

Time Position Orientation Groundspeed Altitude Reporting Facility
EDT Latitude Longitude Course Direction KTS MPH feet Rate Location/Type
10:07PM 23.2108 -81.3519 14° North 449 517 6,800  Level Miami Center
10:08PM 23.2864 -81.3389 North 370 426 9,400 2,100 Climbing Miami Center
10:09PM 23.3703 -81.3258 North 325 374 11,000 1,620 Climbing Miami Center
10:10PM 23.4669 -81.3089 North 319 367 12,700 1,860 Climbing Miami Center
10:11PM 23.5675 -81.2919 North 339 390 14,800 1,740 Climbing Miami Center
10:12PM 23.0823 -81.4226 14° North  Level Estimated
10:17PM 24.2580 -81.1860 North 419 482 25,400  Level FlightAware
10:18PM 24.3390 -81.1890 358° North 415 478 26,300 1,020 Climbing FlightAware
10:18PM 24.4250 -81.1920 358° North 433 498 26,900 900 Climbing FlightAware
10:19PM 24.5170 -81.1950 358° North 434 499 27,600 960 Climbing FlightAware
10:20PM 24.5960 -81.1980 358° North 447 514 28,300 960 Climbing FlightAware
10:20PM 24.6810 -81.2010 358° North 453 521 28,900 900 Climbing FlightAware
10:21PM 24.7760 -81.2040 358° North 449 517 29,600 1,020 Climbing FlightAware
10:22PM 24.8640 -81.2070 358° North 450 518 30,400 1,320 Climbing FlightAware
10:23PM 24.9610 -81.2100 358° North 451 519 31,500 1,500 Climbing FlightAware
10:23PM 25.0390 -81.2120 359° North 434 499 32,600 1,080 Climbing FlightAware
10:24PM 25.1240 -81.2150 358° North 438 504 33,000 240 Climbing FlightAware
10:25PM 25.2150 -81.2190 358° North 447 514 33,000  Level FlightAware
10:25PM 25.3010 -81.2220 358° North 447 514 33,000  Level FlightAware
10:26PM 25.3910 -81.2250 358° North 448 516 33,000 420 Level FlightAware
10:27PM 25.4770 -81.2280 358° North 447 514 33,600 1,080 Climbing FlightAware
10:27PM 25.5590 -81.2300 359° North 437 503 34,500 1,620 Climbing FlightAware
10:28PM 25.6500 -81.2340 358° North 435 501 35,900 1,620 Climbing FlightAware
10:29PM 25.7310 -81.2360 359° North 422 486 36,800 1,080 Climbing FlightAware
10:30PM 25.8210 -81.2390 358° North 432 497 37,500 720 Climbing FlightAware
10:30PM 25.9020 -81.2420 358° North 432 497 37,900 960 Climbing FlightAware
10:31PM 25.9820 -81.2450 358° North 432 497 38,800 720 Climbing FlightAware
10:32PM 26.0730 -81.2480 358° North 434 499 39,000 120 Climbing FlightAware
10:32PM 26.1540 -81.2510 358° North 435 501 39,000  Level FlightAware
10:33PM 26.2440 -81.2540 358° North 437 503 39,000  Level FlightAware
10:34PM 26.3240 -81.2570 358° North 436 502 39,000  Level FlightAware
10:34PM 26.4050 -81.2600 358° North 435 501 39,000  Level FlightAware
10:35PM 26.4970 -81.2630 358° North 436 502 39,000  Level FlightAware
10:36PM 26.5770 -81.2660 358° North 431 496 39,000  Level FlightAware
10:36PM 26.6600 -81.2690 358° North 433 498 39,000  Level FlightAware
10:37PM 26.7490 -81.2720 358° North 435 501 39,000  Level FlightAware
10:38PM 26.8210 -81.2740 359° North 434 499 39,000  Level FlightAware
10:39PM 26.9240 -81.2780 358° North 433 498 39,000  Level FlightAware
10:39PM 26.9980 -81.2800 359° North 433 498 39,000  Level FlightAware
10:40PM 27.0970 -81.2840 358° North 435 501 39,000  Level FlightAware
10:41PM 27.1660 -81.2860 359° North 435 501 39,000  Level FlightAware
10:41PM 27.2630 -81.2890 358° North 436 502 39,000  Level FlightAware
10:42PM 27.3560 -81.2930 358° North 435 501 39,000  Level FlightAware
10:43PM 27.4380 -81.2960 358° North 435 501 39,000  Level FlightAware
10:44PM 27.5330 -81.2990 358° North 443 510 39,000  Level FlightAware
10:44PM 27.6160 -81.3030 358° North 441 507 39,000  Level FlightAware
10:45PM 27.6990 -81.3090 356° North 441 507 39,000  Level FlightAware
10:46PM 27.7820 -81.3160 356° North 442 509 39,000  Level FlightAware
10:46PM 27.8670 -81.3220 356° North 435 501 39,000  Level FlightAware
10:47PM 27.9640 -81.3290 356° North 444 511 39,000  Level FlightAware
10:48PM 28.0480 -81.3360 356° North 445 512 39,000  Level FlightAware
10:48PM 28.1400 -81.3420 357° North 447 514 39,000  Level FlightAware
10:49PM 28.2200 -81.3480 356° North 447 514 39,000  Level FlightAware
10:50PM 28.3040 -81.3550 356° North 446 513 39,000  Level FlightAware
10:50PM 28.3870 -81.3610 356° North 445 512 39,000  Level FlightAware
10:51PM 28.4780 -81.3680 356° North 441 507 39,000  Level FlightAware
10:52PM 28.5480 -81.3730 356° North 440 506 39,000  Level FlightAware
10:53PM 28.6540 -81.3810 356° North 435 501 39,000  Level FlightAware
10:53PM 28.7270 -81.3860 357° North 436 502 39,000  Level FlightAware
10:54PM 28.8200 -81.3930 356° North 434 499 39,000  Level FlightAware
10:55PM 28.9010 -81.4000 356° North 433 498 39,000  Level FlightAware
10:55PM 28.9920 -81.4060 357° North 433 498 39,000  Level FlightAware
10:56PM 29.0720 -81.4120 356° North 436 502 39,000  Level FlightAware
10:57PM 29.1550 -81.4190 356° North 451 519 39,000  Level FlightAware
10:58PM 29.2520 -81.4260 356° North 450 518 39,000  Level FlightAware
10:58PM 29.3340 -81.4320 356° North 448 516 39,000  Level FlightAware
10:59PM 29.4070 -81.4380 356° North 439 505 39,000  Level FlightAware
11:00PM 29.4910 -81.4450 356° North 439 505 39,000  Level FlightAware
11:00PM 29.6060 -81.4530 357° North 437 503 39,000  Level FlightAware
11:01PM 29.6920 -81.4600 356° North 437 503 39,000  Level FlightAware
11:02PM 29.7600 -81.4660 356° North 437 503 39,000  Level FlightAware
11:03PM 29.8290 -81.4710 356° North 437 503 39,000  Level FlightAware
11:03PM 29.8970 -81.4770 356° North 437 503 39,000  Level FlightAware
11:04PM 29.9660 -81.4820 356° North 437 503 39,000  Level FlightAware
11:05PM 30.1590 -81.4960 356° North 447 514 39,000  Level FlightAware
11:05PM 30.2420 -81.5020 356° North 447 514 39,000  Level FlightAware
11:06PM 30.3040 -81.5060 357° North 448 516 39,000  Level FlightAware
11:06PM 30.3550 -81.4960 10° North 462 532 39,000  Level FlightAware
11:07PM 30.4390 -81.4790 10° North 462 532 39,000  Level FlightAware
11:08PM 30.5100 -81.4640 10° North 462 532 39,000  Level FlightAware
11:08PM 30.5820 -81.4490 10° North 462 532 39,000  Level FlightAware
11:09PM 30.6530 -81.4350 10° North 462 532 39,000  Level FlightAware
11:10PM 30.7250 -81.4200 10° North 462 532 39,000  Level FlightAware
11:11PM 30.8140 -81.4020 10° North 462 532 39,000  Level FlightAware
11:11PM 30.8860 -81.3870 10° North 462 532 39,000  Level FlightAware
11:12PM 30.9580 -81.3720 10° North 462 532 39,000  Level FlightAware
11:13PM 31.0290 -81.3580 10° North 462 532 39,000  Level FlightAware
11:13PM 31.1010 -81.3430 10° North 462 532 39,000  Level FlightAware
11:14PM 31.1720 -81.3280 10° North 462 532 39,000  Level FlightAware
11:15PM 31.2620 -81.3100 10° North 462 532 39,000  Level FlightAware
11:15PM 31.3330 -81.2950 10° North 462 532 39,000  Level FlightAware
11:16PM 31.4050 -81.2800 10° North 462 532 39,000  Level FlightAware
11:16PM 31.5700 -80.9460 60° Northeast 39,000  Level FlightAware
11:17PM 31.5940 -80.9340 23° Northeast 463 533 39,000  Level FlightAware
11:17PM 31.6780 -80.8950 22° Northeast 463 533 39,000  Level FlightAware
11:18PM 31.7470 -80.8620 22° Northeast 463 533 39,000  Level FlightAware
11:19PM 31.9020 -80.7910 21° North 464 534 39,000  Level FlightAware
11:20PM 31.9800 -80.7540 22° Northeast 465 535 39,000  Level FlightAware
11:21PM 32.0850 -80.7020 23° Northeast 468 539 39,000  Level FlightAware
11:22PM 32.1540 -80.6700 21° North 468 539 39,000  Level FlightAware
11:22PM 32.2220 -80.6370 22° Northeast 468 539 39,000  Level FlightAware
11:23PM 32.3560 -80.5740 22° Northeast 472 543 39,000  Level FlightAware
11:24PM 32.5350 -80.4880 22° Northeast 471 542 39,000  Level FlightAware
11:25PM 32.6150 -80.4500 22° Northeast 470 541 39,000  Level FlightAware
11:26PM 32.6970 -80.4110 22° Northeast 470 541 39,000  Level FlightAware
11:26PM 32.7830 -80.3690 22° Northeast 472 543 39,000  Level FlightAware
11:27PM 32.8670 -80.3280 22° Northeast 473 544 39,000  Level FlightAware
11:28PM 32.9490 -80.2890 22° Northeast 473 544 39,000  Level FlightAware
11:29PM 33.0410 -80.2440 22° Northeast 475 547 39,000  Level FlightAware
11:29PM 33.1200 -80.2060 22° Northeast 476 548 39,000  Level FlightAware
11:30PM 33.2130 -80.1600 22° Northeast 476 548 39,000  Level FlightAware
11:31PM 33.2950 -80.1210 22° Northeast 477 549 39,000  Level FlightAware
11:31PM 33.3860 -80.0760 22° Northeast 478 550 39,000  Level FlightAware
11:32PM 33.4650 -80.0370 22° Northeast 478 550 39,000  Level FlightAware
11:33PM 33.5500 -79.9960 22° Northeast 479 551 39,000  Level FlightAware
11:33PM 33.6420 -79.9500 23° Northeast 480 552 39,000  Level FlightAware
11:34PM 33.7230 -79.9100 22° Northeast 481 554 39,000 120 Level FlightAware
11:35PM 33.8150 -79.8650 22° Northeast 484 557 39,200 300 Climbing FlightAware
11:36PM 33.9000 -79.8230 22° Northeast 489 563 39,500 540 Climbing FlightAware
11:37PM 34.0330 -79.7570 22° Northeast 491 565 40,200 360 Climbing FlightAware
11:37PM 34.1190 -79.7150 22° Northeast 491 565 40,200  Level FlightAware
11:38PM 34.1900 -79.6800 22° Northeast 491 565 40,200  Level FlightAware
11:39PM 34.2620 -79.6450 22° Northeast 491 565 40,200  Level FlightAware
11:40PM 34.3510 -79.6010 22° Northeast 491 565 40,200  Level FlightAware
11:40PM 34.4230 -79.5660 22° Northeast 491 565 40,200  Level FlightAware
11:41PM 34.4940 -79.5310 22° Northeast 491 565 40,200  Level FlightAware
11:42PM 34.5660 -79.4960 22° Northeast 491 565 40,200  Level FlightAware
11:42PM 34.6560 -79.4520 22° Northeast 491 565 40,200  Level FlightAware
11:43PM 34.7090 -79.4250 23° Northeast 491 565 40,200  Level FlightAware
11:44PM 34.7990 -79.3810 22° Northeast 491 565 40,200  Level FlightAware
11:44PM 34.8700 -79.3460 22° Northeast 491 565 40,200  Level FlightAware
11:45PM 34.9420 -79.3110 22° Northeast 491 565 40,200  Level FlightAware
11:46PM 35.0140 -79.2760 22° Northeast 491 565 40,200  Level FlightAware
11:47PM 35.1030 -79.2310 22° Northeast 491 565 40,200 480 Level FlightAware
11:47PM 35.3740 -78.9490 40° Northeast 505 581 41,000 540 Climbing FlightAware
11:48PM 35.4650 -78.8920 27° Northeast 506 582 41,000  Level FlightAware
11:49PM 35.5470 -78.8400 27° Northeast 507 583 41,000  Level FlightAware
11:49PM 35.6430 -78.7790 27° Northeast 508 585 41,000  Level FlightAware
11:50PM 35.7270 -78.7250 28° Northeast 511 588 41,000  Level FlightAware
11:51PM 35.8110 -78.6720 27° Northeast 513 590 41,000  Level FlightAware
11:51PM 35.8990 -78.6160 27° Northeast 515 593 41,000  Level FlightAware
11:52PM 35.9900 -78.5580 27° Northeast 516 594 41,000  Level FlightAware
11:53PM 36.0860 -78.4960 28° Northeast 518 596 41,000  Level FlightAware
11:54PM 36.1760 -78.4450 25° Northeast 517 595 41,000  Level FlightAware
11:54PM 36.2710 -78.3960 23° Northeast 517 595 41,000  Level FlightAware
11:55PM 36.3590 -78.3510 22° Northeast 515 593 41,000  Level FlightAware
11:56PM 36.4480 -78.3060 22° Northeast 513 590 41,000  Level FlightAware
11:56PM 36.5480 -78.2550 22° Northeast 511 588 41,000  Level FlightAware
11:57PM 36.6370 -78.2090 23° Northeast 510 587 41,000  Level FlightAware
11:58PM 36.7230 -78.1650 22° Northeast 510 587 41,000  Level FlightAware
11:59PM 36.8480 -78.1010 22° Northeast 503 579 41,000  Level FlightAware
11:59PM 36.9290 -78.0590 23° Northeast 513 590 41,000  Level FlightAware
12:00AM 37.0180 -78.0130 22° Northeast 515 593 41,000  Level FlightAware
12:01AM 37.1230 -77.9590 22° Northeast 517 595 41,000  Level FlightAware
12:01AM 37.2120 -77.9130 22° Northeast 518 596 41,000  Level FlightAware
12:02AM 37.2990 -77.8680 22° Northeast 517 595 41,000  Level FlightAware
12:03AM 37.3990 -77.8160 22° Northeast 518 596 41,000  Level FlightAware
12:04AM 37.4990 -77.7630 23° Northeast 518 596 41,000  Level FlightAware
12:04AM 37.5812 -77.7200 23° Northeast 517 595 41,000  Level FlightAware ADS-B
12:05AM 37.6496 -77.6841 23° Northeast 516 594 41,000  Level FlightAware ADS-B
12:05AM 37.7165 -77.6488 23° Northeast 516 594 41,000  Level FlightAware ADS-B
12:06AM 37.7851 -77.6126 23° Northeast 515 593 41,000  Level FlightAware ADS-B
12:06AM 37.8511 -77.5776 23° Northeast 514 592 41,000  Level FlightAware ADS-B
12:07AM 37.9195 -77.5413 23° Northeast 514 592 41,000  Level FlightAware ADS-B
12:07AM 37.9910 -77.5033 23° Northeast 514 592 41,000  Level FlightAware ADS-B
12:08AM 38.0603 -77.4664 23° Northeast 515 593 41,000  Level FlightAware ADS-B
12:08AM 38.1316 -77.4284 23° Northeast 517 595 41,000  Level FlightAware ADS-B
12:09AM 38.1996 -77.3921 23° Northeast 518 596 41,000  Level FlightAware ADS-B
12:09AM 38.2715 -77.3535 23° Northeast 519 597 41,000  Level FlightAware ADS-B
12:10AM 38.3378 -77.3178 23° Northeast 519 597 41,000  Level FlightAware ADS-B
12:10AM 38.4051 -77.2817 23° Northeast 520 598 41,000  Level FlightAware ADS-B
12:11AM 38.4765 -77.2432 23° Northeast 522 601 41,000  Level FlightAware ADS-B
12:12AM 38.5502 -77.2033 23° Northeast 522 601 41,000  Level FlightAware ADS-B
12:12AM 38.6187 -77.1662 23° Northeast 523 602 41,000  Level FlightAware ADS-B
12:13AM 38.6864 -77.1296 23° Northeast 522 601 41,000  Level FlightAware ADS-B
12:13AM 38.7553 -77.0920 23° Northeast 523 602 41,000  Level FlightAware ADS-B
12:14AM 38.8228 -77.0552 23° Northeast 522 601 41,000  Level FlightAware ADS-B
12:14AM 38.8912 -77.0178 23° Northeast 522 601 41,000  Level FlightAware ADS-B
12:15AM 38.9592 -76.9805 23° Northeast 522 601 41,000  Level FlightAware ADS-B
12:15AM 39.0261 -76.9437 23° Northeast 521 600 41,000  Level FlightAware ADS-B
12:16AM 39.0949 -76.9060 23° Northeast 521 600 41,000  Level FlightAware ADS-B
12:16AM 39.1614 -76.8693 23° Northeast 521 600 41,000  Level FlightAware ADS-B
12:17AM 39.2309 -76.8309 23° Northeast 521 600 41,000  Level FlightAware ADS-B
12:17AM 39.2982 -76.7936 23° Northeast 521 600 41,000  Level FlightAware ADS-B
12:18AM 39.3673 -76.7554 23° Northeast 522 601 41,000  Level FlightAware ADS-B
12:18AM 39.4364 -76.7170 23° Northeast 521 600 41,000  Level FlightAware ADS-B
12:19AM 39.5036 -76.6795 23° Northeast 521 600 41,000  Level FlightAware ADS-B
12:19AM 39.5708 -76.6420 23° Northeast 521 600 41,000  Level FlightAware ADS-B
12:20AM 39.6393 -76.6037 23° Northeast 521 600 41,000  Level FlightAware ADS-B
12:20AM 39.7060 -76.5663 23° Northeast 520 598 41,000  Level FlightAware ADS-B
12:21AM 39.7722 -76.5292 23° Northeast 520 598 41,000  Level FlightAware ADS-B
12:21AM 39.8401 -76.4909 23° Northeast 519 597 41,000  Level FlightAware ADS-B
12:22AM 39.9057 -76.4539 23° Northeast 520 598 41,000  Level FlightAware ADS-B
12:22AM 39.9737 -76.4154 23° Northeast 520 598 41,000  Level FlightAware ADS-B
12:23AM 40.0408 -76.3774 23° Northeast 522 601 41,000  Level FlightAware ADS-B
12:23AM 40.1080 -76.3392 23° Northeast 521 600 41,000  Level FlightAware ADS-B
12:24AM 40.1746 -76.3013 23° Northeast 521 600 41,000  Level FlightAware ADS-B
12:24AM 40.2408 -76.2636 23° Northeast 520 598 41,000  Level FlightAware ADS-B
12:25AM 40.3078 -76.2253 24° Northeast 521 600 41,000  Level FlightAware ADS-B
12:25AM 40.3744 -76.1871 24° Northeast 521 600 41,000  Level FlightAware ADS-B
12:26AM 40.4410 -76.1489 24° Northeast 521 600 41,000  Level FlightAware ADS-B
12:26AM 40.5081 -76.1102 24° Northeast 522 601 41,000  Level FlightAware ADS-B
12:27AM 40.5744 -76.0719 24° Northeast 522 601 41,000  Level FlightAware ADS-B
12:27AM 40.6407 -76.0336 24° Northeast 521 600 41,000  Level FlightAware ADS-B
12:28AM 40.7072 -75.9951 24° Northeast 520 598 41,000  Level FlightAware ADS-B
12:28AM 40.7753 -75.9556 24° Northeast 518 596 41,000  Level FlightAware ADS-B
12:29AM 40.8409 -75.9175 24° Northeast 516 594 41,000  Level FlightAware ADS-B
12:29AM 40.9068 -75.8791 24° Northeast 515 593 41,000  Level FlightAware ADS-B
12:30AM 40.9725 -75.8407 24° Northeast 515 593 41,000  Level FlightAware ADS-B
12:30AM 41.0383 -75.8022 24° Northeast 516 594 41,000  Level FlightAware ADS-B
12:31AM 41.1060 -75.7625 24° Northeast 517 595 41,000  Level FlightAware ADS-B
12:31AM 41.1716 -75.7240 24° Northeast 518 596 41,000  Level FlightAware ADS-B
12:32AM 41.2372 -75.6853 24° Northeast 519 597 41,000  Level FlightAware ADS-B
12:32AM 41.3034 -75.6462 24° Northeast 519 597 41,000  Level FlightAware ADS-B
12:33AM 41.3702 -75.6068 24° Northeast 520 598 41,000  Level FlightAware ADS-B
12:33AM 41.4375 -75.5668 24° Northeast 521 600 41,000  Level FlightAware ADS-B
12:34AM 41.5040 -75.5272 24° Northeast 523 602 41,000  Level FlightAware ADS-B
12:34AM 41.5706 -75.4874 24° Northeast 523 602 41,000  Level FlightAware ADS-B
12:35AM 41.6369 -75.4478 24° Northeast 524 603 41,000  Level FlightAware ADS-B
12:35AM 41.7076 -75.4054 24° Northeast 525 604 41,000  Level FlightAware ADS-B
12:36AM 41.7749 -75.3650 24° Northeast 525 604 41,000  Level FlightAware ADS-B
12:36AM 41.8418 -75.3248 24° Northeast 525 604 41,000  Level FlightAware ADS-B
12:37AM 41.9119 -75.2826 24° Northeast 526 605 41,000  Level FlightAware ADS-B
12:37AM 41.9798 -75.2415 24° Northeast 527 606 41,000  Level FlightAware ADS-B
12:38AM 42.0472 -75.2006 24° Northeast 527 606 41,000  Level FlightAware ADS-B
12:38AM 42.1143 -75.1599 24° Northeast 528 608 41,000  Level FlightAware ADS-B
12:39AM 42.1818 -75.1188 24° Northeast 528 608 41,000  Level FlightAware ADS-B
12:39AM 42.2484 -75.0781 24° Northeast 527 606 41,000  Level FlightAware ADS-B
12:40AM 42.3167 -75.0364 24° Northeast 526 605 41,000  Level FlightAware ADS-B
12:40AM 42.3845 -74.9947 24° Northeast 526 605 41,000  Level FlightAware ADS-B
12:41AM 42.4526 -74.9529 24° Northeast 525 604 41,000  Level FlightAware ADS-B
12:41AM 42.5221 -74.9102 24° Northeast 526 605 41,000  Level FlightAware ADS-B
12:42AM 42.5899 -74.8682 25° Northeast 528 608 41,000  Level FlightAware ADS-B
12:43AM 42.6480 -74.8320 25° Northeast 527 606 41,000  Level FlightAware
12:43AM 42.6732 -74.8166 24° Northeast 528 608 41,000  Level FlightAware ADS-B
12:43AM 42.7450 -74.7720 25° Northeast 529 609 41,000  Level FlightAware
12:44AM 42.8243 -74.7227 25° Northeast 529 609 41,000  Level FlightAware ADS-B
12:45AM 42.9250 -74.6600 25° Northeast 529 609 41,000  Level FlightAware
12:45AM 42.9763 -74.6276 25° Northeast 529 609 41,000  Level FlightAware ADS-B
12:46AM 43.1130 -74.5420 25° Northeast 527 606 41,000 -180 Level FlightAware
12:47AM 43.2120 -74.4800 25° Northeast 532 612 40,700 -480 Descending FlightAware
12:47AM 43.3000 -74.4240 25° Northeast 533 613 40,400 -1,080 Descending FlightAware
12:48AM 43.3910 -74.3660 25° Northeast 534 615 39,300 -1,860 Descending FlightAware
12:49AM 43.4900 -74.3020 25° Northeast 527 606 37,800 -1,980 Descending FlightAware
12:50AM 43.5730 -74.2500 24° Northeast 526 605 36,500 -2,280 Descending FlightAware
12:50AM 43.6760 -74.1840 25° Northeast 526 605 34,800 -2,400 Descending FlightAware
12:51AM 43.7610 -74.1290 25° Northeast 523 602 33,300 -2,280 Descending FlightAware
12:52AM 43.8590 -74.0650 25° Northeast 513 590 31,600 -2,160 Descending FlightAware
12:52AM 43.9540 -74.0040 25° Northeast 498 573 30,100 -1,980 Descending FlightAware
12:53AM 44.0350 -73.9510 25° Northeast 476 548 28,800 -2,100 Descending FlightAware
12:54AM 44.1210 -73.8970 24° Northeast 463 533 27,200 -2,100 Descending FlightAware
12:54AM 44.2060 -73.8680 14° North 451 519 25,900 -2,100 Descending FlightAware
12:55AM 44.2910 -73.8390 14° North 442 509 24,400 -2,100 Descending FlightAware
12:56AM 44.3810 -73.8080 14° North 431 496 23,000 -1,920 Descending FlightAware
12:57AM 44.4580 -73.7820 14° North 421 484 21,700 -1,980 Descending FlightAware
12:57AM 44.5350 -73.7570 13° North 412 474 20,400 -2,100 Descending FlightAware
12:58AM 44.6150 -73.7310 13° North 407 468 18,800 -2,160 Descending FlightAware
12:59AM 44.6880 -73.7110 11° North 396 456 17,400 -2,400 Descending FlightAware
12:59AM 44.7710 -73.6890 11° North 395 455 15,400 -2,880 Descending FlightAware
01:00AM 44.8440 -73.6680 12° North 401 461 13,400 -2,400 Descending FlightAware
01:01AM 44.9230 -73.6460 11° North 385 443 12,000 -1,980 Descending FlightAware
01:01AM 44.9920 -73.6260 12° North 377 434 10,600 -1,440 Descending FlightAware
01:02AM 45.0580 -73.6080 11° North 346 398 10,100 -720 Descending FlightAware
01:03AM 45.1040 -73.5950 11° North 326 375 9,800 -600 Descending FlightAware
01:03AM 45.1460 -73.5830 11° North 303 349 9,500 -1,140 Descending FlightAware
01:04AM 45.1810 -73.5730 11° North 291 335 8,800 -1,860 Descending FlightAware
01:04AM 45.2210 -73.5620 11° North 290 334 7,800 -2,040 Descending FlightAware
01:04AM 45.2390 -73.5570 11° North 288 331 7,300 -1,800 Descending FlightAware
01:05AM 45.2730 -73.5470 12° North 287 330 6,600 -1,440 Descending FlightAware
01:05AM 45.3130 -73.5360 11° North 277 319 6,000 -960 Descending FlightAware
01:05AM 45.3300 -73.5310 12° North 271 312 5,900 -900 Descending FlightAware
01:06AM 45.3610 -73.5220 12° North 268 308 5,400 -1,320 Descending FlightAware
01:06AM 45.3980 -73.5120 11° North 270 311 4,700 -1,560 Descending FlightAware
01:07AM 45.4270 -73.5030 12° North 270 311 4,000 -1,440 Descending FlightAware
01:07AM 45.4630 -73.4930 11° North 261 300 3,400 -1,020 Descending FlightAware
01:08AM 45.4930 -73.4850 11° North 245 282 3,100 -900 Descending FlightAware
01:08AM 45.5270 -73.4770 North 245 282 2,600 -660 Descending FlightAware
01:09AM 45.5520 -73.4720 North 248 285 2,500 -180 Descending FlightAware
01:09AM 45.5720 -73.4820 341° North 241 277 2,500  Level FlightAware
01:09AM 45.5880 -73.5020 319° Northwest 239 275 2,500  Level FlightAware
01:10AM 45.6010 -73.5180 319° Northwest 229 264 2,500  Level FlightAware
01:10AM 45.6090 -73.5430 295° West 210 242 2,500  Level FlightAware
01:10AM 45.6050 -73.5770 260° West 203 234 2,500  Level FlightAware
01:11AM 45.5960 -73.5900 225° Southwest 188 216 2,500 -300 Level FlightAware
01:11AM 45.5770 -73.6130 220° Southwest 171 197 2,300 -840 Descending FlightAware
01:11AM 45.5680 -73.6250 223° Southwest 174 200 1,900 -1,200 Descending FlightAware
01:12AM 45.5530 -73.6440 222° Southwest 162 186 1,500 -780 Descending FlightAware
01:12AM 45.5450 -73.6550 224° Southwest 150 173 1,400 -720 Descending FlightAware
01:12AM 45.5310 -73.6730 222° Southwest 131 151 1,000 -900 Descending FlightAware
01:13AM 45.5270 -73.6790 226° Southwest 128 147 800 -900 Descending FlightAware
01:13AM 45.5160 -73.6930 222° Southwest 128 147 500 -720 Descending FlightAware
01:14AM 45.5000 -73.7140 223° Southwest 131 151 100 -720 Descending FlightAware
01:14AM 45.4900 -73.7270 222° Southwest 131 151 -240 Descending FlightAware